Time;durP1;ratioP1;P1;durP2;ratioP2;P2;SDS_P1;SDS_P2;PMS_P1;PMS_P2;Temp;Humidity;BMP_temperature;BMP_pressure;BME280_temperature;BME280_humidity;BME280_pressure;Samples;Min_cycle;Max_cycle;Signal;HPM_P1;HPM_P2
2022/11/05 00:09:31;;;;;;;2.92;1.35;;;;;;;11.78;80.29;100165.50;5021080;28;20690;-78
2022/11/05 00:17:27;;;;;;;6.50;1.70;;;;;;;11.76;80.49;100171.16;5009847;28;20392;-78
2022/11/05 00:19:53;;;;;;;1.27;1.23;;;;;;;11.78;80.81;100170.91;5011729;28;20412;-78
2022/11/05 00:25:17;;;;;;;2.75;1.90;;;;;;;11.76;80.85;100167.63;5016543;28;20958;-79
2022/11/05 00:27:43;;;;;;;2.58;2.30;;;;;;;11.71;81.22;100165.72;5019803;28;20400;-78
2022/11/05 00:30:10;;;;;;;3.72;2.30;;;;;;;11.71;81.31;100173.03;5022068;28;20405;-78
2022/11/05 00:32:35;;;;;;;3.17;2.80;;;;;;;11.71;81.72;100175.75;5016094;28;20806;-79
2022/11/05 00:35:00;;;;;;;2.87;2.67;;;;;;;11.70;81.35;100169.50;5017242;28;20400;-78
2022/11/05 00:37:27;;;;;;;6.17;2.90;;;;;;;11.61;82.10;100173.72;5019158;28;20424;-78
2022/11/05 00:39:52;;;;;;;2.90;2.70;;;;;;;11.61;82.26;100175.63;5030608;28;20909;-78
2022/11/05 00:45:01;;;;;;;4.53;3.13;;;;;;;11.72;82.16;100174.69;5006949;28;20412;-78
2022/11/05 00:50:11;;;;;;;3.63;3.30;;;;;;;11.68;82.46;100173.53;5017815;28;20414;-78
2022/11/05 00:52:56;;;;;;;3.77;3.47;;;;;;;11.69;82.41;100181.38;5018262;28;20487;-78
2022/11/05 00:55:38;;;;;;;4.70;3.73;;;;;;;11.74;82.41;100175.22;5014567;28;20484;-78
2022/11/05 00:58:16;;;;;;;5.85;4.15;;;;;;;11.71;82.36;100183.88;5012415;28;20411;-78
2022/11/05 01:00:51;;;;;;;5.80;4.10;;;;;;;11.66;82.33;100183.78;5018003;28;20426;-78
2022/11/05 01:03:19;;;;;;;4.93;4.47;;;;;;;11.66;82.33;100181.09;5019389;28;20408;-78
2022/11/05 01:05:47;;;;;;;5.10;4.60;;;;;;;11.71;82.32;100190.13;5022054;28;20512;-78
2022/11/05 01:08:14;;;;;;;6.68;4.30;;;;;;;11.72;82.47;100194.47;5026158;28;20750;-78
2022/11/05 01:10:45;;;;;;;5.28;4.70;;;;;;;11.71;82.60;100194.75;5029268;28;20405;-78
2022/11/05 01:13:11;;;;;;;6.13;4.73;;;;;;;11.72;82.69;100197.19;5022399;28;20956;-78
2022/11/05 01:15:37;;;;;;;5.75;5.03;;;;;;;11.73;82.66;100204.25;5021257;28;20760;-78
2022/11/05 01:18:04;;;;;;;5.87;5.27;;;;;;;11.77;82.68;100205.38;5022605;28;20382;-78
2022/11/05 01:20:29;;;;;;;5.40;4.90;;;;;;;11.78;82.67;100203.50;5016817;28;20408;-78
2022/11/05 01:22:54;;;;;;;5.60;5.13;;;;;;;11.75;82.47;100199.41;5013400;28;20428;-78
2022/11/05 01:25:20;;;;;;;6.17;5.53;;;;;;;11.69;83.06;100211.25;5011774;28;20437;-78
2022/11/05 01:27:45;;;;;;;8.33;5.30;;;;;;;11.71;83.14;100206.44;5026763;28;20430;-78
2022/11/05 01:30:11;;;;;;;7.47;5.93;;;;;;;11.72;82.95;100205.34;5022900;28;20743;-78
2022/11/05 01:32:37;;;;;;;7.15;5.50;;;;;;;11.72;82.90;100210.75;5017263;28;20404;-78
2022/11/05 01:35:04;;;;;;;6.20;5.60;;;;;;;11.71;83.19;100209.16;5026197;28;20414;-78
2022/11/05 01:37:29;;;;;;;6.22;5.68;;;;;;;11.72;83.22;100215.41;5026787;28;20418;-78
2022/11/05 01:39:55;;;;;;;6.43;5.83;;;;;;;11.76;83.20;100217.31;5023667;28;20443;-78
2022/11/05 01:42:23;;;;;;;6.90;6.28;;;;;;;11.74;83.02;100224.09;5022524;28;20416;-77
2022/11/05 01:44:56;;;;;;;6.82;5.88;;;;;;;11.73;83.29;100228.69;5022939;28;20768;-78
2022/11/05 01:47:29;;;;;;;6.60;5.97;;;;;;;11.75;83.22;100221.13;5021391;28;20760;-77
2022/11/05 01:49:59;;;;;;;6.75;6.05;;;;;;;11.76;83.20;100228.19;5026673;28;20406;-77
2022/11/05 01:52:27;;;;;;;6.70;6.03;;;;;;;11.81;83.16;100224.69;5019193;28;20454;-77
2022/11/05 01:54:53;;;;;;;7.30;6.60;;;;;;;11.84;83.02;100229.59;5022530;28;20466;-77
2022/11/05 01:57:19;;;;;;;6.93;6.15;;;;;;;11.83;83.05;100225.25;5020298;28;20885;-77
2022/11/05 01:59:49;;;;;;;7.68;6.10;;;;;;;11.84;83.18;100229.59;5022165;28;20511;-77
2022/11/05 02:02:15;;;;;;;7.35;6.65;;;;;;;11.86;82.99;100224.72;5020812;28;20411;-77
2022/11/05 02:04:49;;;;;;;6.65;6.05;;;;;;;11.81;83.39;100233.66;5023902;28;21004;-77
2022/11/05 02:07:16;;;;;;;10.63;6.35;;;;;;;11.80;83.34;100228.47;5022142;28;20385;-77
2022/11/05 02:09:52;;;;;;;8.95;6.45;;;;;;;11.74;83.75;100240.38;5017139;28;20819;-77
2022/11/05 02:12:19;;;;;;;8.20;6.90;;;;;;;11.72;83.87;100239.81;5016153;28;20737;-77
2022/11/05 02:14:44;;;;;;;8.18;6.72;;;;;;;11.71;83.85;100233.56;5019467;28;20393;-77
2022/11/05 02:17:25;;;;;;;8.83;6.37;;;;;;;11.71;84.13;100243.59;5015825;28;20397;-77
2022/11/05 02:20:13;;;;;;;7.10;6.40;;;;;;;11.69;84.25;100248.47;5021931;28;20397;-77
2022/11/05 02:23:00;;;;;;;8.43;6.53;;;;;;;11.72;84.12;100251.47;5024452;28;20426;-77
2022/11/05 02:25:49;;;;;;;7.28;6.25;;;;;;;11.75;83.83;100255.59;5007209;28;20439;-77
2022/11/05 02:28:47;;;;;;;7.90;6.68;;;;;;;11.76;84.17;100254.50;5023075;28;20418;-77
2022/11/05 02:31:53;;;;;;;8.05;6.25;;;;;;;11.72;84.12;100262.34;5013289;28;20959;-77
2022/11/05 02:34:33;;;;;;;8.98;6.45;;;;;;;11.77;84.09;100251.53;5013625;28;20489;-77
2022/11/05 02:37:18;;;;;;;6.60;5.97;;;;;;;11.77;83.88;100261.56;5021694;28;20408;-77
2022/11/05 02:40:18;;;;;;;9.07;7.32;;;;;;;11.79;83.93;100262.94;5016690;28;20440;-77
2022/11/05 02:42:46;;;;;;;8.48;6.85;;;;;;;11.79;83.98;100270.28;5019462;28;20934;-77
2022/11/05 02:45:39;;;;;;;7.45;6.78;;;;;;;11.79;84.03;100265.66;5022786;28;20446;-77
2022/11/05 02:48:43;;;;;;;8.45;7.07;;;;;;;11.67;84.50;100266.88;5012021;28;20395;-77
2022/11/05 02:51:29;;;;;;;9.25;6.75;;;;;;;11.65;84.42;100263.59;5015395;28;20385;-77
2022/11/05 02:54:04;;;;;;;9.30;7.32;;;;;;;11.64;84.70;100260.06;5042872;28;20436;-76
2022/11/05 02:56:32;;;;;;;7.65;6.95;;;;;;;11.65;84.95;100272.56;5020998;28;20410;-77
2022/11/05 02:58:58;;;;;;;10.98;7.20;;;;;;;11.70;84.54;100271.78;5025841;28;20777;-77
2022/11/05 03:01:23;;;;;;;9.33;6.70;;;;;;;11.73;84.20;100263.16;5017800;28;20409;-77
2022/11/05 03:03:52;;;;;;;8.63;7.03;;;;;;;11.75;84.40;100269.19;5010947;28;20427;-77
2022/11/05 03:06:38;;;;;;;8.35;7.05;;;;;;;11.73;84.36;100274.84;5020562;28;20790;-77
2022/11/05 03:09:21;;;;;;;9.23;6.97;;;;;;;11.76;84.17;100273.50;5021222;28;20441;-76
2022/11/05 03:11:57;;;;;;;8.55;7.03;;;;;;;11.71;84.26;100284.31;5012360;28;20466;-77
2022/11/05 03:14:36;;;;;;;7.60;6.72;;;;;;;11.69;84.54;100289.97;5020952;28;20407;-77
2022/11/05 03:17:29;;;;;;;7.50;6.80;;;;;;;11.66;84.73;100287.75;5017610;28;20445;-76
2022/11/05 03:20:14;;;;;;;9.23;7.20;;;;;;;11.69;84.44;100297.31;5019768;28;20970;-77
2022/11/05 03:23:04;;;;;;;7.38;6.70;;;;;;;11.74;84.33;100290.06;5020217;28;20409;-77
2022/11/05 03:25:34;;;;;;;9.52;7.30;;;;;;;11.71;84.25;100300.63;5022337;28;20393;-77
2022/11/05 03:28:05;;;;;;;8.30;7.13;;;;;;;11.69;84.43;100297.31;5019958;28;20414;-77
2022/11/05 03:30:34;;;;;;;10.90;7.20;;;;;;;11.66;84.50;100301.34;5016603;28;20501;-77
2022/11/05 03:33:04;;;;;;;9.68;7.22;;;;;;;11.61;84.93;100298.59;5021626;28;20393;-77
2022/11/05 03:35:37;;;;;;;9.20;7.28;;;;;;;11.64;85.03;100308.09;5017834;28;20408;-77
2022/11/05 03:38:08;;;;;;;8.85;7.45;;;;;;;11.66;84.82;100309.47;5012130;28;20385;-77
2022/11/05 03:40:36;;;;;;;8.07;6.35;;;;;;;11.65;84.91;100307.88;5020583;28;20389;-77
2022/11/05 03:43:06;;;;;;;9.43;7.47;;;;;;;11.64;84.68;100316.25;5021175;28;20510;-77
2022/11/05 03:45:37;;;;;;;11.70;7.18;;;;;;;11.63;84.85;100318.13;5015050;28;20432;-77
2022/11/05 03:48:04;;;;;;;7.97;6.57;;;;;;;11.60;85.08;100318.66;5018998;28;20431;-76
2022/11/05 03:50:31;;;;;;;9.88;7.82;;;;;;;11.59;84.98;100319.72;5013903;28;20436;-76
2022/11/05 03:53:10;;;;;;;9.60;7.70;;;;;;;11.60;85.01;100321.38;5019813;28;20410;-77
2022/11/05 03:55:46;;;;;;;7.88;6.93;;;;;;;11.60;85.01;100328.69;5019566;28;20930;-77
2022/11/05 03:58:13;;;;;;;8.38;7.57;;;;;;;11.59;84.93;100337.91;5013553;28;20411;-77
2022/11/05 04:00:38;;;;;;;7.88;6.93;;;;;;;11.54;85.44;100338.66;5021450;28;20521;-77
2022/11/05 04:03:03;;;;;;;11.70;7.70;;;;;;;11.60;85.29;100334.09;5023560;28;20889;-77
2022/11/05 04:05:29;;;;;;;9.53;6.93;;;;;;;11.57;85.16;100346.31;5016023;28;20439;-77
2022/11/05 04:13:25;;;;;;;9.73;6.90;;;;;;;11.63;85.10;100356.13;5020525;28;20435;-76
2022/11/05 04:18:38;;;;;;;7.53;6.50;;;;;;;11.61;84.96;100362.91;5010391;28;20872;-76
2022/11/05 04:24:08;;;;;;;7.80;7.00;;;;;;;11.56;85.11;100362.84;5019198;28;20436;-77
2022/11/05 04:26:38;;;;;;;7.85;6.55;;;;;;;11.61;85.12;100365.63;5013298;28;20450;-77
2022/11/05 04:31:48;;;;;;;7.88;6.70;;;;;;;11.60;84.99;100370.22;5023489;28;20791;-77
2022/11/05 04:34:15;;;;;;;8.40;6.88;;;;;;;11.55;84.87;100383.75;5017685;28;20405;-77
2022/11/05 04:36:40;;;;;;;8.27;6.50;;;;;;;11.52;85.14;100378.81;5011009;28;20404;-77
2022/11/05 04:39:05;;;;;;;10.07;7.17;;;;;;;11.49;84.98;100376.63;5016657;28;20768;-76
2022/11/05 04:41:30;;;;;;;7.17;6.47;;;;;;;11.45;85.26;100372.75;5022426;28;20533;-76
2022/11/05 04:43:56;;;;;;;9.40;7.00;;;;;;;11.48;85.25;100377.69;5013370;28;20450;-77
2022/11/05 04:46:21;;;;;;;8.48;7.00;;;;;;;11.53;85.01;100371.47;5019203;28;20861;-76
2022/11/05 04:48:46;;;;;;;7.47;6.57;;;;;;;11.54;84.89;100376.66;5019805;28;20475;-77
2022/11/05 04:51:11;;;;;;;8.40;6.60;;;;;;;11.54;84.83;100375.84;5019511;28;20408;-77
2022/11/05 04:53:37;;;;;;;7.90;6.70;;;;;;;11.53;84.89;100376.91;5021379;28;20423;-77
2022/11/05 04:56:16;;;;;;;8.50;6.33;;;;;;;11.54;84.69;100375.84;5016118;28;20410;-77
2022/11/05 04:58:42;;;;;;;7.28;5.82;;;;;;;11.53;84.81;100383.16;5010964;28;20748;-76
2022/11/05 05:01:16;;;;;;;7.03;5.57;;;;;;;11.52;84.75;100389.69;5019349;28;20392;-77
2022/11/05 05:03:42;;;;;;;6.10;5.50;;;;;;;11.53;84.82;100398.63;5013905;28;20913;-77
2022/11/05 05:06:07;;;;;;;8.63;5.05;;;;;;;11.52;84.76;100397.00;5021321;28;20411;-77
2022/11/05 05:08:33;;;;;;;6.03;4.57;;;;;;;11.50;84.69;100401.84;5019327;28;20535;-77
2022/11/05 05:11:20;;;;;;;4.40;4.00;;;;;;;11.50;84.15;100401.84;5012603;28;20771;-76
2022/11/05 05:13:46;;;;;;;3.83;3.50;;;;;;;11.50;84.10;100413.53;5015862;28;20798;-77
2022/11/05 05:16:18;;;;;;;6.13;3.35;;;;;;;11.45;84.13;100417.00;5033200;28;20415;-76
2022/11/05 05:18:43;;;;;;;4.80;3.70;;;;;;;11.45;83.96;100419.72;5019277;28;20411;-76
2022/11/05 05:23:53;;;;;;;4.82;4.15;;;;;;;11.41;83.92;100429.44;5015801;28;20587;-76
2022/11/05 05:26:18;;;;;;;4.23;3.40;;;;;;;11.42;83.88;100430.25;5021190;28;20479;-76
2022/11/05 05:28:44;;;;;;;3.67;3.43;;;;;;;11.43;83.90;100437.31;5014077;28;20487;-77
2022/11/05 05:31:09;;;;;;;3.70;3.40;;;;;;;11.42;83.67;100441.09;5008586;28;20409;-77
2022/11/05 05:33:34;;;;;;;3.80;3.50;;;;;;;11.43;83.47;100440.00;5010066;28;20404;-77
2022/11/05 05:36:01;;;;;;;4.30;3.60;;;;;;;11.44;83.22;100447.09;5018116;28;20879;-77
2022/11/05 05:38:27;;;;;;;3.83;3.63;;;;;;;11.44;83.54;100452.53;5015075;28;20458;-76
2022/11/05 05:40:56;;;;;;;7.35;3.95;;;;;;;11.46;83.46;100453.91;5011571;28;20411;-76
2022/11/05 05:43:22;;;;;;;5.72;3.45;;;;;;;11.48;83.47;100456.38;5009967;28;20425;-76
2022/11/05 05:45:47;;;;;;;4.35;3.85;;;;;;;11.51;83.51;100461.31;5014603;28;20853;-77
2022/11/05 05:48:12;;;;;;;5.13;3.70;;;;;;;11.51;83.29;100460.47;5018182;28;20408;-76
2022/11/05 05:50:37;;;;;;;4.87;3.87;;;;;;;11.52;83.42;100462.13;5020749;28;20479;-76
2022/11/05 05:53:03;;;;;;;4.33;3.97;;;;;;;11.48;83.24;100466.41;5019757;28;20449;-76
2022/11/05 05:55:28;;;;;;;9.13;4.23;;;;;;;11.45;83.52;100474.00;5023329;28;20419;-76
2022/11/05 05:57:53;;;;;;;5.23;3.80;;;;;;;11.45;83.63;100467.75;5022168;28;20418;-76
2022/11/05 06:00:19;;;;;;;4.70;4.10;;;;;;;11.48;83.75;100475.38;5007559;28;20480;-76
2022/11/05 06:02:44;;;;;;;6.90;4.37;;;;;;;11.42;83.52;100481.81;5023013;28;20422;-76
2022/11/05 06:05:10;;;;;;;4.80;4.40;;;;;;;11.41;83.92;100480.16;5025130;28;20392;-77
2022/11/05 06:07:35;;;;;;;4.90;4.40;;;;;;;11.39;83.82;100480.38;5010794;28;20453;-77
2022/11/05 06:10:00;;;;;;;4.95;4.13;;;;;;;11.39;83.73;100490.44;5004935;28;20402;-77
2022/11/05 06:12:28;;;;;;;7.93;4.27;;;;;;;11.41;83.72;100489.13;5006536;28;20401;-76
2022/11/05 06:14:53;;;;;;;4.13;3.72;;;;;;;11.39;83.61;100495.88;5015738;28;20532;-76
2022/11/05 06:17:18;;;;;;;9.97;5.50;;;;;;;11.39;83.60;100493.16;5021945;28;20393;-76
2022/11/05 06:19:43;;;;;;;6.67;5.73;;;;;;;11.37;83.79;100498.81;5016885;28;20397;-76
2022/11/05 06:22:09;;;;;;;5.50;4.93;;;;;;;11.39;83.61;100498.59;5013514;28;20479;-76
2022/11/05 06:24:34;;;;;;;7.53;4.50;;;;;;;11.43;83.43;100511.41;5018898;28;20772;-77
2022/11/05 06:27:00;;;;;;;4.13;3.73;;;;;;;11.44;83.24;100514.94;5018340;28;20907;-77
2022/11/05 06:29:25;;;;;;;3.50;3.20;;;;;;;11.38;83.21;100522.19;5013265;28;20891;-76
2022/11/05 06:31:50;;;;;;;3.97;3.60;;;;;;;11.30;83.40;100525.31;5018563;28;20408;-77
2022/11/05 06:34:16;;;;;;;3.80;3.53;;;;;;;11.28;83.65;100527.44;5019550;28;20415;-77
2022/11/05 06:36:41;;;;;;;3.53;3.23;;;;;;;11.30;83.70;100536.16;5014656;28;21098;-77
2022/11/05 06:39:11;;;;;;;3.53;3.23;;;;;;;11.37;83.26;100531.38;5012150;28;20428;-76
2022/11/05 06:41:36;;;;;;;3.37;3.07;;;;;;;11.40;82.88;100536.31;5019440;28;20409;-77
2022/11/05 06:44:03;;;;;;;3.35;3.05;;;;;;;11.43;82.99;100537.69;5018425;28;22289;-77
2022/11/05 06:46:28;;;;;;;5.00;2.83;;;;;;;11.23;83.73;100546.34;5009483;28;20511;-76
2022/11/05 06:48:54;;;;;;;4.47;3.27;;;;;;;11.20;83.88;100544.13;5015225;28;20752;-77
2022/11/05 06:51:19;;;;;;;8.67;4.73;;;;;;;11.29;83.65;100553.53;5009231;28;20770;-76
2022/11/05 06:53:44;;;;;;;5.32;3.10;;;;;;;11.35;83.37;100549.00;5017771;28;20420;-78
2022/11/05 06:56:10;;;;;;;3.50;2.80;;;;;;;11.36;83.08;100556.88;5012713;28;20405;-77
2022/11/05 06:58:35;;;;;;;2.80;2.60;;;;;;;11.36;82.87;100556.88;5011928;28;20398;-77
2022/11/05 07:01:07;;;;;;;5.73;3.10;;;;;;;11.36;83.16;100565.00;5013502;28;20429;-77
2022/11/05 07:03:33;;;;;;;3.92;3.47;;;;;;;11.38;83.15;100570.19;5015895;28;20557;-77
2022/11/05 07:06:01;;;;;;;4.57;3.40;;;;;;;11.40;83.02;100571.59;5012497;28;20480;-80
2022/11/05 07:08:31;;;;;;;5.20;4.72;;;;;;;11.45;82.96;100579.81;5013970;28;20509;-77
2022/11/05 07:10:57;;;;;;;4.75;4.30;;;;;;;11.41;82.96;100580.56;5012426;28;20402;-78
2022/11/05 07:13:23;;;;;;;6.13;4.13;;;;;;;11.40;83.13;100584.31;5014491;28;20438;-78
2022/11/05 07:15:48;;;;;;;5.53;4.07;;;;;;;11.40;83.24;100592.47;5024442;28;20460;-79
2022/11/05 07:18:15;;;;;;;3.37;3.07;;;;;;;11.40;82.79;100596.00;5011868;28;20417;-78
2022/11/05 07:20:40;;;;;;;3.42;3.20;;;;;;;11.40;82.63;100601.44;5025618;28;20443;-79
2022/11/05 07:23:09;;;;;;;3.87;2.90;;;;;;;11.42;82.86;100606.63;5012478;28;20430;-79
2022/11/05 07:25:34;;;;;;;4.22;3.22;;;;;;;11.50;82.81;100611.63;5014666;28;20453;-78
2022/11/05 07:28:01;;;;;;;3.83;3.43;;;;;;;11.51;82.61;100618.72;5013449;28;20400;-77
2022/11/05 07:30:27;;;;;;;4.38;3.20;;;;;;;11.51;82.59;100612.47;5011484;28;20409;-78
2022/11/05 07:32:53;;;;;;;4.00;2.85;;;;;;;11.55;82.42;100613.63;5013553;28;20397;-78
2022/11/05 07:35:18;;;;;;;4.33;2.83;;;;;;;11.58;82.47;100619.38;5010748;28;20410;-77
2022/11/05 07:37:45;;;;;;;3.42;3.13;;;;;;;11.59;82.36;100625.63;5012558;28;20400;-78
2022/11/05 07:40:13;;;;;;;3.45;2.78;;;;;;;11.61;82.47;100626.19;5013235;28;20407;-77
2022/11/05 07:42:46;;;;;;;2.87;2.67;;;;;;;11.64;82.14;100623.81;5012290;28;20527;-77
2022/11/05 07:45:12;;;;;;;2.58;2.38;;;;;;;11.56;82.11;100623.41;5004354;28;20775;-77
2022/11/05 07:47:48;;;;;;;2.65;2.45;;;;;;;11.54;82.25;100629.06;5010555;28;20393;-77
2022/11/05 07:50:16;;;;;;;3.83;2.20;;;;;;;11.52;82.27;100622.25;5003170;28;20466;-77
2022/11/05 07:52:41;;;;;;;2.80;2.70;;;;;;;11.60;82.10;100629.97;5047558;28;20783;-77
2022/11/05 07:55:07;;;;;;;3.00;2.77;;;;;;;11.62;81.92;100634.09;5010621;28;20412;-77
2022/11/05 07:57:43;;;;;;;3.25;3.05;;;;;;;11.61;81.82;100639.75;5005900;28;20402;-77
2022/11/05 08:00:12;;;;;;;5.28;2.78;;;;;;;11.59;81.90;100641.91;5006121;28;20476;-78
2022/11/05 08:02:37;;;;;;;2.88;2.30;;;;;;;11.53;82.17;100651.00;5011097;28;20410;-77
2022/11/05 08:05:03;;;;;;;2.40;2.30;;;;;;;11.55;82.04;100654.31;5011961;28;20401;-78
2022/11/05 08:07:28;;;;;;;2.47;2.37;;;;;;;11.56;82.21;100642.41;5009414;28;20410;-77
2022/11/05 08:09:53;;;;;;;3.30;3.00;;;;;;;11.59;81.93;100655.50;5008218;28;20420;-77
2022/11/05 08:12:19;;;;;;;2.67;2.47;;;;;;;11.57;81.76;100665.75;5017742;28;20442;-78
2022/11/05 08:14:44;;;;;;;3.57;2.30;;;;;;;11.57;81.69;100665.75;5016052;28;20404;-78
2022/11/05 08:17:10;;;;;;;2.80;2.60;;;;;;;11.56;81.61;100669.56;5008882;28;20400;-77
2022/11/05 08:19:35;;;;;;;3.20;2.97;;;;;;;11.60;81.41;100671.50;4997140;28;20457;-77
2022/11/05 08:22:00;;;;;;;3.30;3.00;;;;;;;11.65;81.21;100668.91;5013487;28;20415;-77
2022/11/05 08:24:25;;;;;;;3.47;2.80;;;;;;;11.72;80.69;100675.00;5023048;28;20394;-80
2022/11/05 08:26:52;;;;;;;2.83;2.63;;;;;;;11.74;80.58;100666.59;5010392;28;20465;-78
2022/11/05 08:29:17;;;;;;;2.38;2.00;;;;;;;11.75;80.33;100671.81;4998796;28;20887;-77
2022/11/05 08:31:43;;;;;;;2.50;2.30;;;;;;;11.77;80.51;100679.69;5001846;28;20420;-78
2022/11/05 08:34:08;;;;;;;2.13;2.03;;;;;;;11.76;80.54;100683.47;5020708;28;20403;-79
2022/11/05 08:36:34;;;;;;;2.47;2.27;;;;;;;11.79;80.13;100682.97;5003800;28;20413;-78
2022/11/05 08:39:00;;;;;;;2.28;2.17;;;;;;;11.88;80.37;100684.22;5004696;28;20399;-78
2022/11/05 08:41:25;;;;;;;4.22;1.92;;;;;;;11.92;80.00;100691.59;5019188;28;20397;-79
2022/11/05 08:43:54;;;;;;;2.63;2.00;;;;;;;11.94;79.95;100692.19;5008802;28;20889;-80
2022/11/05 08:46:19;;;;;;;3.88;2.47;;;;;;;12.00;79.32;100686.84;5017796;28;20889;-78
2022/11/05 08:48:44;;;;;;;2.80;2.00;;;;;;;12.01;78.91;100691.19;5013115;28;20414;-79
2022/11/05 08:51:09;;;;;;;2.20;2.03;;;;;;;12.02;78.57;100695.56;5018139;28;20962;-78
2022/11/05 08:53:35;;;;;;;1.97;1.87;;;;;;;12.00;78.99;100695.81;5038095;28;20431;-79
2022/11/05 08:56:00;;;;;;;3.67;2.67;;;;;;;12.00;79.05;100693.09;5015345;28;20408;-78
2022/11/05 08:58:26;;;;;;;3.97;2.87;;;;;;;12.11;79.26;100688.63;5010101;28;20403;-78
2022/11/05 09:00:51;;;;;;;4.93;4.33;;;;;;;12.13;78.54;100691.91;5005750;28;20879;-79
2022/11/05 09:03:17;;;;;;;3.50;3.20;;;;;;;12.16;78.35;100699.56;5014363;28;20506;-78
2022/11/05 09:05:42;;;;;;;6.87;2.97;;;;;;;12.16;78.39;100700.41;5009029;28;20388;-78
2022/11/05 09:08:10;;;;;;;3.58;3.38;;;;;;;12.23;78.40;100701.03;5020433;28;20396;-78
2022/11/05 09:10:36;;;;;;;11.13;7.20;;;;;;;12.28;78.27;100703.81;5011385;28;20491;-78
2022/11/05 09:13:02;;;;;;;4.00;3.50;;;;;;;12.34;78.02;100702.03;5013467;28;20488;-78
2022/11/05 09:15:29;;;;;;;2.35;2.25;;;;;;;12.35;78.05;100709.06;5017668;28;20423;-79
2022/11/05 09:17:54;;;;;;;2.65;2.38;;;;;;;12.47;77.88;100705.19;5006594;28;20409;-78
2022/11/05 09:20:19;;;;;;;2.57;2.33;;;;;;;12.53;77.36;100713.41;5001378;28;20412;-78
2022/11/05 09:22:45;;;;;;;5.77;2.37;;;;;;;12.59;77.10;100706.97;5010244;28;20407;-79
2022/11/05 09:25:10;;;;;;;2.40;2.30;;;;;;;12.62;76.77;100706.47;5012039;28;20511;-79
2022/11/05 09:27:36;;;;;;;2.70;2.20;;;;;;;12.51;76.77;100705.53;5014815;28;20429;-79
2022/11/05 09:30:01;;;;;;;2.53;2.33;;;;;;;12.59;76.62;100706.97;5017285;28;20910;-78
2022/11/05 09:32:26;;;;;;;3.67;2.60;;;;;;;12.70;76.50;100706.03;5017459;28;20436;-79
2022/11/05 09:34:52;;;;;;;5.15;4.38;;;;;;;12.71;76.58;100719.34;5008408;28;20408;-79
2022/11/05 09:37:17;;;;;;;4.63;3.30;;;;;;;12.80;75.83;100715.16;5013808;28;20929;-78
2022/11/05 09:39:42;;;;;;;2.70;2.50;;;;;;;12.80;75.60;100719.75;5018328;28;20409;-78
2022/11/05 09:42:14;;;;;;;2.90;2.70;;;;;;;12.90;75.70;100719.88;5021080;28;20423;-80
2022/11/05 09:44:58;;;;;;;6.35;3.08;;;;;;;13.20;74.45;100725.72;5017984;28;20891;-78
2022/11/05 09:47:30;;;;;;;6.72;2.85;;;;;;;13.40;73.91;100728.63;5015546;28;20486;-78
2022/11/05 09:49:59;;;;;;;2.95;2.65;;;;;;;13.43;73.33;100725.41;5015394;28;20397;-78
2022/11/05 09:52:28;;;;;;;4.63;2.90;;;;;;;13.33;74.00;100725.31;5031659;28;20492;-79
2022/11/05 09:54:55;;;;;;;2.85;2.50;;;;;;;13.35;74.22;100733.22;5029370;28;20404;-77
2022/11/05 09:57:28;;;;;;;2.78;2.42;;;;;;;13.36;73.52;100730.25;5023681;28;20433;-79
2022/11/05 09:59:57;;;;;;;2.70;2.35;;;;;;;13.47;73.75;100725.69;5028089;28;20397;-78
2022/11/05 10:02:26;;;;;;;4.82;2.83;;;;;;;13.78;73.01;100726.81;5015642;28;20898;-79
2022/11/05 10:05:02;;;;;;;2.45;2.25;;;;;;;13.84;72.07;100734.78;5014973;28;20404;-79
2022/11/05 10:07:34;;;;;;;2.92;2.63;;;;;;;13.89;72.33;100740.28;5011847;28;20773;-78
2022/11/05 10:10:03;;;;;;;3.97;3.15;;;;;;;13.88;72.28;100735.06;5023839;28;20411;-78
2022/11/05 10:12:36;;;;;;;6.68;3.20;;;;;;;13.87;72.47;100745.16;5020480;28;20968;-80
2022/11/05 10:15:04;;;;;;;3.97;2.97;;;;;;;13.89;72.20;100750.34;5018119;28;20418;-78
2022/11/05 10:17:31;;;;;;;3.58;2.90;;;;;;;13.83;71.97;100746.75;5020186;28;20391;-79
2022/11/05 10:20:32;;;;;;;4.03;3.13;;;;;;;14.00;71.46;100747.44;4997688;28;20422;-79
2022/11/05 10:23:03;;;;;;;3.97;2.70;;;;;;;14.16;70.58;100748.38;4993158;28;20450;-79
2022/11/05 10:25:36;;;;;;;5.70;3.67;;;;;;;14.13;70.03;100745.38;5012248;28;20401;-78
2022/11/05 10:28:03;;;;;;;3.88;3.42;;;;;;;13.98;69.75;100746.88;5006641;28;20411;-79
2022/11/05 10:30:29;;;;;;;3.80;3.50;;;;;;;13.86;70.30;100759.84;5017481;28;20419;-78
2022/11/05 10:32:59;;;;;;;10.53;3.87;;;;;;;13.81;70.60;100758.97;5019700;28;20796;-79
2022/11/05 10:35:28;;;;;;;5.18;3.40;;;;;;;13.90;70.12;100762.88;5004933;28;20406;-78
2022/11/05 10:37:54;;;;;;;7.47;3.80;;;;;;;13.83;70.43;100773.97;5005393;28;20399;-78
2022/11/05 10:40:47;;;;;;;6.80;3.80;;;;;;;13.69;70.72;100767.34;5010486;28;20413;-78
2022/11/05 10:43:19;;;;;;;6.45;4.57;;;;;;;13.64;70.88;100761.81;5012081;28;20420;-78
2022/11/05 10:46:22;;;;;;;3.08;2.78;;;;;;;13.53;71.27;100773.72;5007127;28;20476;-80
2022/11/05 10:49:05;;;;;;;6.63;3.30;;;;;;;13.54;71.15;100767.16;5007281;28;20412;-79
2022/11/05 10:51:32;;;;;;;4.70;3.63;;;;;;;13.47;71.36;100778.25;5011997;28;20400;-78
2022/11/05 10:54:15;;;;;;;4.93;3.38;;;;;;;13.41;71.70;100773.00;5010633;28;20412;-78
2022/11/05 10:56:41;;;;;;;8.13;4.05;;;;;;;13.41;71.68;100776.56;5011753;28;20400;-79
2022/11/05 10:59:25;;;;;;;4.47;2.87;;;;;;;13.48;71.16;100771.75;5004467;28;20409;-78
2022/11/05 11:02:12;;;;;;;4.00;3.00;;;;;;;13.55;71.05;100759.81;5006809;28;20401;-80
2022/11/05 11:04:37;;;;;;;6.53;3.03;;;;;;;13.71;70.51;100767.06;5006331;28;20424;-79
2022/11/05 11:07:03;;;;;;;5.78;2.58;;;;;;;13.72;70.01;100763.25;5013827;28;20401;-79
2022/11/05 11:09:35;;;;;;;4.82;2.40;;;;;;;13.66;69.35;100756.94;5012202;28;20401;-80
2022/11/05 11:12:14;;;;;;;3.05;2.38;;;;;;;13.79;68.91;100761.97;5013262;28;20401;-79
2022/11/05 11:14:39;;;;;;;6.15;2.17;;;;;;;13.75;68.24;100762.75;5008435;28;20482;-80
2022/11/05 11:17:27;;;;;;;3.65;2.00;;;;;;;13.81;68.61;100758.97;5010961;28;20404;-79
2022/11/05 11:20:30;;;;;;;5.97;2.20;;;;;;;13.81;68.69;100756.25;5005993;28;20412;-79
2022/11/05 11:23:14;;;;;;;4.95;3.00;;;;;;;13.74;68.88;100761.09;5008630;28;20419;-79
2022/11/05 11:25:59;;;;;;;7.20;3.15;;;;;;;13.88;68.98;100765.03;5008086;28;20538;-79
2022/11/05 11:28:30;;;;;;;7.63;3.17;;;;;;;13.86;68.83;100762.56;5013077;28;20412;-79
2022/11/05 11:31:07;;;;;;;7.82;3.55;;;;;;;13.78;69.39;100759.50;5010147;28;20401;-78
2022/11/05 11:33:33;;;;;;;12.57;5.75;;;;;;;13.68;69.56;100751.22;5006925;28;20435;-81
2022/11/05 11:35:59;;;;;;;5.40;3.53;;;;;;;13.61;69.55;100756.88;5013065;28;20389;-79
2022/11/05 11:38:29;;;;;;;2.73;2.47;;;;;;;13.57;69.83;100749.50;5006434;28;20416;-79
2022/11/05 11:41:09;;;;;;;5.32;3.20;;;;;;;13.44;70.42;100756.16;5004895;28;20400;-79
2022/11/05 11:43:38;;;;;;;5.97;3.15;;;;;;;13.41;70.59;100748.50;5008357;28;20428;-80
2022/11/05 11:46:33;;;;;;;5.03;3.75;;;;;;;13.40;70.50;100753.13;5007638;28;20434;-79
2022/11/05 11:49:02;;;;;;;6.07;3.03;;;;;;;13.35;70.71;100765.88;5008246;28;20780;-79
2022/11/05 11:51:34;;;;;;;5.57;2.83;;;;;;;13.34;70.72;100766.94;5006591;28;20744;-79
2022/11/05 11:54:00;;;;;;;5.83;2.70;;;;;;;13.39;70.34;100767.00;5008962;28;20871;-80
2022/11/05 11:56:26;;;;;;;5.63;3.50;;;;;;;13.43;70.59;100774.44;5010906;28;20488;-80
2022/11/05 11:58:54;;;;;;;23.23;10.23;;;;;;;13.43;70.49;100768.16;5009105;28;20421;-79
2022/11/05 12:01:43;;;;;;;8.15;4.45;;;;;;;13.56;70.31;100765.03;5005449;28;20411;-78
2022/11/05 12:04:08;;;;;;;9.43;4.85;;;;;;;13.69;69.78;100761.06;5010190;28;20424;-80
2022/11/05 12:06:58;;;;;;;6.93;4.15;;;;;;;13.91;69.29;100764.53;5008941;28;20404;-80
2022/11/05 12:09:35;;;;;;;5.80;3.40;;;;;;;14.01;68.13;100762.72;5006189;28;20437;-80
2022/11/05 12:12:13;;;;;;;4.75;3.05;;;;;;;14.09;67.46;100758.69;5016512;28;20486;-79
2022/11/05 12:14:47;;;;;;;3.60;2.83;;;;;;;13.90;67.26;100755.53;5010773;28;20413;-80
2022/11/05 12:17:37;;;;;;;3.50;2.80;;;;;;;13.88;67.39;100759.59;5011555;28;20405;-80